createdAt,value
2023-06-17T00:00:35.926Z,5.20
2023-06-17T00:01:35.881Z,5.10
2023-06-17T00:02:35.905Z,5.80
2023-06-17T00:03:35.939Z,4.60
2023-06-17T00:04:35.845Z,4.90
2023-06-17T00:05:35.834Z,5.30
2023-06-17T00:06:35.837Z,5.80
2023-06-17T00:07:35.801Z,5.30
2023-06-17T00:08:35.782Z,4.50
2023-06-17T00:09:35.787Z,4.80
2023-06-17T00:10:35.754Z,3.50
2023-06-17T00:11:35.745Z,3.40
2023-06-17T00:12:35.727Z,4.00
2023-06-17T00:13:35.728Z,4.60
2023-06-17T00:14:35.710Z,4.00
2023-06-17T00:15:35.691Z,4.30
2023-06-17T00:16:35.677Z,3.90
2023-06-17T00:17:35.733Z,4.10
2023-06-17T00:18:35.670Z,3.70
2023-06-17T00:19:35.649Z,4.00
2023-06-17T00:20:35.623Z,4.00
2023-06-17T00:21:35.627Z,4.80
2023-06-17T00:22:35.589Z,5.10
2023-06-17T00:23:35.592Z,5.00
2023-06-17T00:24:35.630Z,5.10
2023-06-17T00:25:35.553Z,4.50
2023-06-17T00:26:35.539Z,4.60
2023-06-17T00:27:35.528Z,4.80
2023-06-17T00:28:35.536Z,4.30
2023-06-17T00:29:35.507Z,4.70
2023-06-17T00:30:35.491Z,4.60
2023-06-17T00:31:35.480Z,4.80
2023-06-17T00:32:35.506Z,5.00
2023-06-17T00:33:35.463Z,4.50
2023-06-17T00:34:35.430Z,5.50
2023-06-17T00:35:35.433Z,4.60
2023-06-17T00:36:35.402Z,4.80
2023-06-17T00:37:35.402Z,4.90
2023-06-17T00:38:35.382Z,5.20
2023-06-17T00:39:35.364Z,5.20
2023-06-17T00:40:35.356Z,5.80
2023-06-17T00:41:35.339Z,4.70
2023-06-17T00:42:35.336Z,5.00
2023-06-17T00:43:35.321Z,4.90
2023-06-17T00:44:35.305Z,4.80
2023-06-17T00:45:35.296Z,5.50
2023-06-17T00:46:35.349Z,4.80
2023-06-17T00:47:35.298Z,4.40
2023-06-17T00:48:35.242Z,4.50
2023-06-17T00:49:35.231Z,4.90
2023-06-17T00:50:35.213Z,4.20
2023-06-17T00:51:35.206Z,4.80
2023-06-17T00:52:41.717Z,4.60
2023-06-17T00:53:36.183Z,5.10
2023-06-17T00:54:35.163Z,4.80
2023-06-17T00:55:35.162Z,4.90
2023-06-17T00:56:35.146Z,4.40
2023-06-17T00:57:35.143Z,4.50
2023-06-17T00:58:35.107Z,4.90
2023-06-17T00:59:35.093Z,5.00
2023-06-17T01:00:35.087Z,5.80
2023-06-17T01:01:35.082Z,4.70
2023-06-17T01:02:35.123Z,6.00
2023-06-17T01:03:35.103Z,5.30
2023-06-17T01:04:35.039Z,4.80
2023-06-17T01:05:35.013Z,5.30
2023-06-17T01:06:35.016Z,4.60
2023-06-17T01:07:35.009Z,4.20
2023-06-17T01:08:35.021Z,4.70
2023-06-17T01:09:34.971Z,4.90
2023-06-17T01:10:34.969Z,4.40
2023-06-17T01:11:34.966Z,5.30
2023-06-17T01:12:34.934Z,4.40
2023-06-17T01:13:34.930Z,4.50
2023-06-17T01:14:34.916Z,4.60
2023-06-17T01:15:34.895Z,5.00
2023-06-17T01:16:34.975Z,4.60
2023-06-17T01:17:34.893Z,5.00
2023-06-17T01:18:34.851Z,5.30
2023-06-17T01:19:34.829Z,4.70
2023-06-17T01:20:34.839Z,5.70
2023-06-17T01:21:34.811Z,4.90
2023-06-17T01:22:34.796Z,5.00
2023-06-17T01:23:34.822Z,4.50
2023-06-17T01:24:34.842Z,5.20
2023-06-17T01:25:34.765Z,4.80
2023-06-17T01:26:34.745Z,4.70
2023-06-17T01:27:34.728Z,6.60
2023-06-17T01:28:34.735Z,5.10
2023-06-17T01:29:34.725Z,4.60
2023-06-17T01:30:34.702Z,5.10
2023-06-17T01:31:34.686Z,4.60
2023-06-17T01:32:34.699Z,4.60
2023-06-17T01:33:34.650Z,4.90
2023-06-17T01:34:34.654Z,4.70
2023-06-17T01:35:34.638Z,4.30
2023-06-17T01:36:34.610Z,4.60
2023-06-17T01:37:34.594Z,4.70
2023-06-17T01:38:34.594Z,5.30
2023-06-17T01:39:34.584Z,5.00
2023-06-17T01:40:34.573Z,5.10
2023-06-17T01:41:34.543Z,4.40
2023-06-17T01:42:34.535Z,5.20
2023-06-17T01:43:34.516Z,4.60
2023-06-17T01:44:34.514Z,5.00
2023-06-17T01:45:34.507Z,5.40
2023-06-17T01:46:34.530Z,4.70
2023-06-17T01:47:34.494Z,4.70
2023-06-17T01:48:34.454Z,4.30
2023-06-17T01:49:34.447Z,4.70
2023-06-17T01:50:34.434Z,5.10
2023-06-17T01:51:34.428Z,4.80
2023-06-17T01:52:34.409Z,5.20
2023-06-17T01:53:34.386Z,4.90
2023-06-17T01:54:34.386Z,4.80
2023-06-17T01:55:34.361Z,4.60
2023-06-17T01:56:34.356Z,5.20
2023-06-17T01:57:34.334Z,5.70
2023-06-17T01:58:34.349Z,4.40
2023-06-17T01:59:34.310Z,5.60
2023-06-17T02:00:34.319Z,4.30
2023-06-17T02:01:34.282Z,4.40
2023-06-17T02:02:34.322Z,4.70
2023-06-17T02:03:34.316Z,5.30
2023-06-17T02:04:34.251Z,5.40
2023-06-17T02:05:34.229Z,4.50
2023-06-17T02:06:34.232Z,5.00
2023-06-17T02:07:34.204Z,4.40
2023-06-17T02:08:34.206Z,4.30
2023-06-17T02:09:34.180Z,4.90
2023-06-17T02:10:34.171Z,5.50
2023-06-17T02:11:34.155Z,5.40
2023-06-17T02:12:34.156Z,4.90
2023-06-17T02:13:34.143Z,4.40
2023-06-17T02:14:34.125Z,4.60
2023-06-17T02:15:34.103Z,4.80
2023-06-17T02:16:34.109Z,4.90
2023-06-17T02:17:34.114Z,4.80
2023-06-17T02:18:34.070Z,5.20
2023-06-17T02:19:34.052Z,5.60
2023-06-17T02:20:34.048Z,4.70
2023-06-17T02:21:34.028Z,4.90
2023-06-17T02:22:34.034Z,4.60
2023-06-17T02:23:34.005Z,4.40
2023-06-17T02:24:34.121Z,4.30
2023-06-17T02:25:33.973Z,4.70
2023-06-17T02:26:33.977Z,4.70
2023-06-17T02:27:33.961Z,5.30
2023-06-17T02:28:33.940Z,4.70
2023-06-17T02:29:33.927Z,5.00
2023-06-17T02:30:33.914Z,4.80
2023-06-17T02:31:33.970Z,4.80
2023-06-17T02:32:33.958Z,4.30
2023-06-17T02:33:33.876Z,4.70
2023-06-17T02:34:33.862Z,4.10
2023-06-17T02:35:33.847Z,4.50
2023-06-17T02:36:33.858Z,4.90
2023-06-17T02:37:33.828Z,4.50
2023-06-17T02:38:33.819Z,5.00
2023-06-17T02:39:33.796Z,4.60
2023-06-17T02:40:33.811Z,4.80
2023-06-17T02:41:33.776Z,5.00
2023-06-17T02:42:33.759Z,5.50
2023-06-17T02:43:33.744Z,4.70
2023-06-17T02:44:33.738Z,4.60
2023-06-17T02:45:33.735Z,4.80
2023-06-17T02:46:33.726Z,4.80
2023-06-17T02:47:33.767Z,4.60
2023-06-17T02:48:33.685Z,5.10
2023-06-17T02:49:33.661Z,4.80
2023-06-17T02:50:33.664Z,4.50
2023-06-17T02:51:33.640Z,4.50
2023-06-17T02:52:33.628Z,4.80
2023-06-17T02:53:33.608Z,4.80
2023-06-17T02:54:33.608Z,4.80
2023-06-17T02:55:33.596Z,4.80
2023-06-17T02:56:33.575Z,4.50
2023-06-17T02:57:33.583Z,5.10
2023-06-17T02:58:33.549Z,4.60
2023-06-17T02:59:33.541Z,5.00
2023-06-17T03:00:33.520Z,5.10
2023-06-17T03:01:33.578Z,4.40
2023-06-17T03:02:33.552Z,4.70
2023-06-17T03:03:33.503Z,4.90
2023-06-17T03:04:33.477Z,4.60
2023-06-17T03:05:33.453Z,5.10
2023-06-17T03:06:33.446Z,5.10
2023-06-17T03:07:33.442Z,4.60
2023-06-17T03:08:33.425Z,4.90
2023-06-17T03:09:33.406Z,4.80
2023-06-17T03:10:33.391Z,5.40
2023-06-17T03:11:33.384Z,4.90
2023-06-17T03:12:33.367Z,4.80
2023-06-17T03:13:33.364Z,4.90
2023-06-17T03:14:33.344Z,4.90
2023-06-17T03:15:33.321Z,5.00
2023-06-17T03:16:33.335Z,5.90
2023-06-17T03:17:33.322Z,5.60
2023-06-17T03:18:33.297Z,5.30
2023-06-17T03:19:33.279Z,5.10
2023-06-17T03:20:33.269Z,5.20
2023-06-17T03:21:33.246Z,5.20
2023-06-17T03:22:33.247Z,5.50
2023-06-17T03:23:33.231Z,5.40
2023-06-17T03:24:33.355Z,4.80
2023-06-17T03:25:33.194Z,5.70
2023-06-17T03:26:33.198Z,5.10
2023-06-17T03:27:33.187Z,5.40
2023-06-17T03:28:33.164Z,4.80
2023-06-17T03:29:33.140Z,4.70
2023-06-17T03:30:33.252Z,5.50
2023-06-17T03:31:33.131Z,4.90
2023-06-17T03:32:33.213Z,4.50
2023-06-17T03:33:33.098Z,4.70
2023-06-17T03:34:33.085Z,5.10
2023-06-17T03:35:33.072Z,5.10
2023-06-17T03:36:33.064Z,4.80
2023-06-17T03:37:33.050Z,5.20
2023-06-17T03:38:33.027Z,4.80
2023-06-17T03:39:33.015Z,4.60
2023-06-17T03:40:33.004Z,4.30
2023-06-17T03:41:33.007Z,5.10
2023-06-17T03:42:32.974Z,4.60
2023-06-17T03:43:32.960Z,5.30
2023-06-17T03:44:32.955Z,5.20
2023-06-17T03:45:32.934Z,4.80
2023-06-17T03:46:32.932Z,6.10
2023-06-17T03:47:32.966Z,5.40
2023-06-17T03:48:32.905Z,5.30
2023-06-17T03:49:32.887Z,5.50
2023-06-17T04:02:57.136Z,6.30
2023-06-17T04:03:57.086Z,6.00
2023-06-17T04:04:57.038Z,6.40
2023-06-17T04:05:57.010Z,6.10
2023-06-17T04:06:57.004Z,6.00
2023-06-17T04:07:56.976Z,6.40
2023-06-17T04:08:57.059Z,6.20
2023-06-17T04:10:06.416Z,5.90
2023-06-17T04:10:57.944Z,6.30
2023-06-17T04:11:56.933Z,6.50
2023-06-17T04:12:56.915Z,6.40
2023-06-17T04:13:56.905Z,6.70
2023-06-17T04:14:56.907Z,5.90
2023-06-17T04:15:56.871Z,6.50
2023-06-17T04:16:56.924Z,6.20
2023-06-17T04:17:58.483Z,6.80
2023-06-17T04:18:56.858Z,7.30
2023-06-17T04:19:56.828Z,6.90
2023-06-17T04:20:56.810Z,7.20
2023-06-17T04:21:56.798Z,6.60
2023-06-17T04:22:56.787Z,6.30
2023-06-17T04:23:56.790Z,6.40
2023-06-17T04:24:56.819Z,6.70
2023-06-17T04:25:56.738Z,6.70
2023-06-17T04:26:56.740Z,6.80
2023-06-17T04:27:56.725Z,6.40
2023-06-17T04:28:56.711Z,6.70
2023-06-17T04:29:56.689Z,6.50
2023-06-17T04:30:56.676Z,7.80
2023-06-17T04:31:56.664Z,7.10
2023-06-17T04:32:56.744Z,6.50
2023-06-17T04:33:56.631Z,6.80
2023-06-17T04:34:56.696Z,7.00
2023-06-17T04:35:56.606Z,6.90
2023-06-17T04:36:56.604Z,6.50
2023-06-17T04:37:56.599Z,7.00
2023-06-17T04:38:56.576Z,7.10
2023-06-17T04:39:56.549Z,6.80
2023-06-17T04:40:56.558Z,6.50
2023-06-17T04:41:56.544Z,6.20
2023-06-17T04:42:56.527Z,6.60
2023-06-17T04:43:56.501Z,6.30
2023-06-17T04:44:56.494Z,5.80
2023-06-17T04:45:56.472Z,6.60
2023-06-17T04:46:56.494Z,5.80
2023-06-17T04:47:56.498Z,6.40
2023-06-17T04:48:56.449Z,6.50
2023-06-17T04:49:56.422Z,6.20
2023-06-17T04:50:56.415Z,6.20
2023-06-17T04:51:56.408Z,5.80
2023-06-17T04:52:56.393Z,6.00
2023-06-17T04:53:56.378Z,5.70
2023-06-17T04:54:56.363Z,5.80
2023-06-17T04:55:56.344Z,6.20
2023-06-17T04:56:56.345Z,6.30
2023-06-17T04:57:56.319Z,5.80
2023-06-17T04:58:56.315Z,6.60
2023-06-17T04:59:56.299Z,6.20
2023-06-17T05:00:56.324Z,5.80
2023-06-17T05:01:56.275Z,5.80
2023-06-17T05:02:56.286Z,6.30
2023-06-17T05:03:56.288Z,6.20
2023-06-17T05:04:56.235Z,6.30
2023-06-17T05:05:56.224Z,6.20
2023-06-17T05:06:56.208Z,6.50
2023-06-17T05:07:56.188Z,6.40
2023-06-17T05:08:56.190Z,6.00
2023-06-17T05:09:56.157Z,6.30
2023-06-17T05:10:56.161Z,6.30
2023-06-17T05:11:56.136Z,7.20
2023-06-17T05:12:56.130Z,6.50
2023-06-17T05:13:56.119Z,6.20
2023-06-17T05:14:56.143Z,6.60
2023-06-17T05:15:56.098Z,6.10
2023-06-17T05:16:56.152Z,6.70
2023-06-17T05:17:56.086Z,6.30
2023-06-17T05:18:56.057Z,6.50
2023-06-17T05:19:56.046Z,6.80
2023-06-17T05:20:56.019Z,6.70
2023-06-17T05:21:56.002Z,7.10
2023-06-17T05:22:55.997Z,7.20
2023-06-17T05:23:56.000Z,6.30
2023-06-17T05:24:55.980Z,6.40
2023-06-17T05:25:55.950Z,6.80
2023-06-17T05:26:55.944Z,7.30
2023-06-17T05:27:55.929Z,7.10
2023-06-17T05:28:55.927Z,6.70
2023-06-17T05:29:55.912Z,7.00
2023-06-17T05:30:55.930Z,7.40
2023-06-17T05:31:55.872Z,7.00
2023-06-17T05:32:55.878Z,7.50
2023-06-17T05:33:55.859Z,7.40
2023-06-17T05:34:55.837Z,7.10
2023-06-17T05:35:55.828Z,6.80
2023-06-17T05:36:55.812Z,6.90
2023-06-17T05:37:55.798Z,6.70
2023-06-17T05:38:55.799Z,7.10
2023-06-17T05:39:55.772Z,7.20
2023-06-17T05:40:55.758Z,7.10
2023-06-17T05:41:55.762Z,7.80
2023-06-17T05:42:55.744Z,7.00
2023-06-17T05:43:55.724Z,7.30
2023-06-17T05:44:55.709Z,6.00
2023-06-17T05:45:55.733Z,6.60
2023-06-17T05:46:55.684Z,6.70
2023-06-17T05:47:55.750Z,6.20
2023-06-17T05:48:55.658Z,7.80
2023-06-17T05:49:55.759Z,7.50
2023-06-17T05:50:55.629Z,7.20
2023-06-17T05:51:55.612Z,6.40
2023-06-17T05:52:55.616Z,6.90
2023-06-17T05:53:55.587Z,6.80
2023-06-17T05:54:55.578Z,6.40
2023-06-17T05:55:55.566Z,6.10
2023-06-17T05:56:55.560Z,6.80
2023-06-17T05:57:55.552Z,6.30
2023-06-17T05:58:55.535Z,6.30
2023-06-17T05:59:55.509Z,5.80
2023-06-17T06:00:55.520Z,6.10
2023-06-17T06:01:55.569Z,6.10
2023-06-17T06:02:55.519Z,6.10
2023-06-17T06:03:55.533Z,5.80
2023-06-17T06:04:55.442Z,6.10
2023-06-17T06:05:55.441Z,6.40
2023-06-17T06:06:55.425Z,6.10
2023-06-17T06:07:55.397Z,6.50
2023-06-17T06:08:55.390Z,6.20
2023-06-17T06:09:55.379Z,6.40
2023-06-17T06:10:55.389Z,6.70
2023-06-17T06:11:55.354Z,6.50
2023-06-17T06:12:55.340Z,6.70
2023-06-17T06:13:55.319Z,6.60
2023-06-17T06:14:55.331Z,6.90
2023-06-17T06:15:55.333Z,6.50
2023-06-17T06:16:55.285Z,6.20
2023-06-17T06:17:55.397Z,6.60
2023-06-17T06:18:55.259Z,6.40
2023-06-17T06:19:55.241Z,6.80
2023-06-17T06:20:55.237Z,6.30
2023-06-17T06:21:55.221Z,6.60
2023-06-17T06:22:55.203Z,5.70
2023-06-17T06:23:58.067Z,6.50
2023-06-17T06:24:55.177Z,7.10
2023-06-17T06:25:55.167Z,7.30
2023-06-17T06:26:55.155Z,6.60
2023-06-17T06:27:55.161Z,5.80
2023-06-17T06:28:55.127Z,6.20
2023-06-17T06:29:55.116Z,6.10
2023-06-17T06:30:55.114Z,5.80
2023-06-17T06:31:55.081Z,6.50
2023-06-17T06:32:55.094Z,6.20
2023-06-17T06:33:55.055Z,6.60
2023-06-17T06:34:55.084Z,6.20
2023-06-17T06:35:55.027Z,6.10
2023-06-17T06:36:55.023Z,6.50
2023-06-17T06:37:54.999Z,6.80
2023-06-17T06:38:55.014Z,6.10
2023-06-17T06:39:54.982Z,5.90
2023-06-17T06:40:54.980Z,6.30
2023-06-17T06:41:54.947Z,6.00
2023-06-17T06:42:54.973Z,6.50
2023-06-17T06:43:54.937Z,6.80
2023-06-17T06:44:54.932Z,7.10
2023-06-17T06:45:54.920Z,6.60
2023-06-17T06:46:54.886Z,6.60
2023-06-17T06:47:54.922Z,6.70
2023-06-17T06:48:54.871Z,6.20
2023-06-17T06:49:54.844Z,6.40
2023-06-17T06:50:54.836Z,6.90
2023-06-17T06:51:54.814Z,6.50
2023-06-17T06:52:54.811Z,6.60
2023-06-17T06:53:54.812Z,6.70
2023-06-17T06:54:54.802Z,5.90
2023-06-17T06:55:54.771Z,6.40
2023-06-17T06:56:54.754Z,6.40
2023-06-17T06:57:54.758Z,5.70
2023-06-17T06:58:54.736Z,5.60
2023-06-17T06:59:54.716Z,5.60
2023-06-17T07:00:54.743Z,6.10
2023-06-17T07:01:54.686Z,5.60
2023-06-17T07:02:54.740Z,6.00
2023-06-17T07:03:54.665Z,5.40
2023-06-17T07:04:54.670Z,5.50
2023-06-17T07:05:54.661Z,5.70
2023-06-17T07:06:54.618Z,5.60
2023-06-17T07:07:54.604Z,5.60
2023-06-17T07:08:54.606Z,5.40
2023-06-17T07:09:54.582Z,6.10
2023-06-17T07:10:54.581Z,5.70
2023-06-17T07:11:54.572Z,5.70
2023-06-17T07:12:54.553Z,5.90
2023-06-17T07:13:54.534Z,6.20
2023-06-17T07:14:54.513Z,6.10
2023-06-17T07:15:54.510Z,32.00
2023-06-17T07:16:54.534Z,5.70
2023-06-17T07:17:54.495Z,5.10
2023-06-17T07:18:54.473Z,5.40
2023-06-17T07:19:54.445Z,5.70
2023-06-17T07:20:54.438Z,5.90
2023-06-17T07:21:54.413Z,5.70
2023-06-17T07:22:54.421Z,5.80
2023-06-17T07:23:54.437Z,5.90
2023-06-17T07:24:54.378Z,5.70
2023-06-17T07:25:56.170Z,5.00
2023-06-17T07:26:54.372Z,5.00
2023-06-17T07:27:54.347Z,5.40
2023-06-17T07:28:54.334Z,5.90
2023-06-17T07:29:54.310Z,4.90
2023-06-17T07:30:54.343Z,6.50
2023-06-17T07:31:54.305Z,5.50
2023-06-17T07:32:54.337Z,6.00
2023-06-17T07:33:59.605Z,5.20
2023-06-17T07:34:58.060Z,5.00
2023-06-17T07:35:54.236Z,4.70
2023-06-17T07:36:54.237Z,5.20
2023-06-17T07:37:54.212Z,5.00
2023-06-17T07:38:54.212Z,5.00
2023-06-17T07:39:54.179Z,5.20
2023-06-17T07:40:54.169Z,5.40
2023-06-17T07:41:54.172Z,5.10
2023-06-17T07:42:54.210Z,5.40
2023-06-17T07:43:54.129Z,5.40
2023-06-17T07:44:54.117Z,5.80
2023-06-17T07:45:54.172Z,5.10
2023-06-17T07:46:54.102Z,5.30
2023-06-17T07:47:54.111Z,5.10
2023-06-17T07:48:54.065Z,5.00
2023-06-17T07:49:54.051Z,5.60
2023-06-17T07:50:54.045Z,5.30
2023-06-17T07:51:54.024Z,4.90
2023-06-17T07:52:54.084Z,5.20
2023-06-17T07:53:54.002Z,4.90
2023-06-17T07:54:53.982Z,5.00
2023-06-17T07:55:53.982Z,5.60
2023-06-17T07:56:53.968Z,5.40
2023-06-17T07:57:53.937Z,4.90
2023-06-17T07:58:53.934Z,5.20
2023-06-17T07:59:53.914Z,4.80
2023-06-17T08:00:53.927Z,5.10
2023-06-17T08:01:53.926Z,4.70
2023-06-17T08:02:53.992Z,4.60
2023-06-17T08:03:54.000Z,4.60
2023-06-17T08:04:53.849Z,4.90
2023-06-17T08:05:53.856Z,4.60
2023-06-17T08:06:53.819Z,4.80
2023-06-17T08:07:53.815Z,4.80
2023-06-17T08:08:53.806Z,4.70
2023-06-17T08:09:53.796Z,4.60
2023-06-17T08:10:53.779Z,4.70
2023-06-17T08:11:53.763Z,5.20
2023-06-17T08:12:53.742Z,4.60
2023-06-17T08:13:53.737Z,4.70
2023-06-17T08:14:53.732Z,4.70
2023-06-17T08:15:53.780Z,4.30
2023-06-17T08:16:53.693Z,4.70
2023-06-17T08:17:53.736Z,4.80
2023-06-17T08:18:53.667Z,4.90
2023-06-17T08:19:53.665Z,4.40
2023-06-17T08:20:53.637Z,4.50
2023-06-17T08:21:53.633Z,4.60
2023-06-17T08:22:53.607Z,6.40
2023-06-17T08:23:53.637Z,4.80
2023-06-17T08:24:53.694Z,6.60
2023-06-17T08:25:53.582Z,5.00
2023-06-17T08:26:53.566Z,4.60
2023-06-17T08:27:53.554Z,5.40
2023-06-17T08:28:53.538Z,7.40
2023-06-17T08:29:53.530Z,8.00
2023-06-17T08:30:53.509Z,5.50
2023-06-17T08:31:53.496Z,4.90
2023-06-17T08:32:53.499Z,4.60
2023-06-17T08:33:53.471Z,4.20
2023-06-17T08:34:53.474Z,4.40
2023-06-17T08:35:53.462Z,4.40
2023-06-17T08:36:53.432Z,4.90
2023-06-17T08:37:53.432Z,4.40
2023-06-17T08:38:53.408Z,4.30
2023-06-17T08:39:53.401Z,4.70
2023-06-17T08:40:53.377Z,4.90
2023-06-17T08:41:53.364Z,4.30
2023-06-17T08:42:53.344Z,4.70
2023-06-17T08:43:53.345Z,4.10
2023-06-17T08:44:53.325Z,4.00
2023-06-17T08:45:53.356Z,4.90
2023-06-17T08:46:53.301Z,4.90
2023-06-17T08:47:53.328Z,4.20
2023-06-17T08:48:53.276Z,4.00
2023-06-17T08:49:53.270Z,4.20
2023-06-17T08:50:53.263Z,4.50
2023-06-17T08:51:53.245Z,3.90
2023-06-17T08:52:55.164Z,3.80
2023-06-17T08:53:53.223Z,3.90
2023-06-17T08:54:53.191Z,4.20
2023-06-17T08:55:53.198Z,4.40
2023-06-17T08:56:53.174Z,4.60
2023-06-17T08:57:53.167Z,4.50
2023-06-17T08:58:53.140Z,4.30
2023-06-17T08:59:53.131Z,3.90
2023-06-17T09:00:53.178Z,3.80
2023-06-17T09:01:53.163Z,4.30
2023-06-17T09:02:53.146Z,3.80
2023-06-17T09:03:53.085Z,3.50
2023-06-17T09:04:53.125Z,4.00
2023-06-17T09:05:53.068Z,4.20
2023-06-17T09:06:53.053Z,4.10
2023-06-17T09:07:53.041Z,4.10
2023-06-17T09:08:53.031Z,4.10
2023-06-17T09:09:53.011Z,3.90
2023-06-17T09:10:52.988Z,4.10
2023-06-17T09:11:53.306Z,4.10
2023-06-17T09:12:53.007Z,3.80
2023-06-17T09:13:53.024Z,4.30
2023-06-17T09:14:52.947Z,4.10
2023-06-17T09:15:52.938Z,3.60
2023-06-17T09:16:52.966Z,3.70
2023-06-17T09:17:52.928Z,3.80
2023-06-17T09:18:52.896Z,3.70
2023-06-17T09:19:52.880Z,3.80
2023-06-17T09:20:52.903Z,3.80
2023-06-17T09:21:52.862Z,4.20
2023-06-17T09:22:52.840Z,3.50
2023-06-17T09:23:52.869Z,3.50
2023-06-17T09:24:52.812Z,3.70
2023-06-17T09:25:52.929Z,3.80
2023-06-17T09:26:52.796Z,3.50
2023-06-17T09:28:52.762Z,3.70
2023-06-17T09:29:52.745Z,3.70
2023-06-17T09:30:52.742Z,3.70
2023-06-17T09:31:52.731Z,3.90
2023-06-17T09:32:52.731Z,3.40
2023-06-17T09:33:52.689Z,3.60
2023-06-17T09:34:52.672Z,3.40
2023-06-17T09:35:52.689Z,3.40
2023-06-17T09:36:52.652Z,3.40
2023-06-17T09:38:52.620Z,3.40
2023-06-17T09:39:52.615Z,3.60
2023-06-17T09:40:54.203Z,3.70
2023-06-17T09:41:52.585Z,3.80
2023-06-17T09:42:52.579Z,4.60
2023-06-17T09:43:52.562Z,3.50
2023-06-17T09:44:52.540Z,3.90
2023-06-17T09:45:52.544Z,3.70
2023-06-17T09:46:52.653Z,3.80
2023-06-17T10:03:34.012Z,3.70
2023-06-17T10:04:35.824Z,3.50
2023-06-17T10:05:33.802Z,3.00
2023-06-17T10:06:33.785Z,3.10
2023-06-17T10:07:33.761Z,3.30
2023-06-17T10:08:33.780Z,3.20
2023-06-17T10:09:33.742Z,3.20
2023-06-17T10:10:33.737Z,2.90
2023-06-17T10:11:33.725Z,3.30
2023-06-17T10:12:33.702Z,3.00
2023-06-17T10:13:33.694Z,2.80
2023-06-17T10:14:33.689Z,2.90
2023-06-17T10:15:40.668Z,3.20
2023-06-17T10:16:33.647Z,2.90
2023-06-17T10:17:33.652Z,3.30
2023-06-17T10:18:33.640Z,3.30
2023-06-17T10:19:33.612Z,3.00
2023-06-17T10:20:33.593Z,3.10
2023-06-17T10:21:33.584Z,2.80
2023-06-17T10:22:33.579Z,3.90
2023-06-17T10:23:33.562Z,3.70
2023-06-17T10:24:33.663Z,3.10
2023-06-17T10:25:33.550Z,3.10
2023-06-17T10:26:33.520Z,3.40
2023-06-17T10:27:33.515Z,2.90
2023-06-17T10:28:33.508Z,3.30
2023-06-17T10:29:33.484Z,3.30
2023-06-17T10:30:33.471Z,2.80
2023-06-17T10:31:33.444Z,3.40
2023-06-17T10:32:33.472Z,3.10
2023-06-17T10:33:33.426Z,3.30
2023-06-17T10:34:33.428Z,3.20
2023-06-17T10:35:33.393Z,3.20
2023-06-17T10:36:33.394Z,3.30
2023-06-17T10:37:33.391Z,3.10
2023-06-17T10:38:33.364Z,2.90
2023-06-17T10:39:33.361Z,3.20
2023-06-17T10:40:33.333Z,2.90
2023-06-17T10:41:33.329Z,3.00
2023-06-17T10:42:33.320Z,3.30
2023-06-17T10:43:33.300Z,2.70
2023-06-17T10:44:33.287Z,2.90
2023-06-17T10:45:33.333Z,3.10
2023-06-17T10:46:33.272Z,2.80
2023-06-17T10:47:33.279Z,3.00
2023-06-17T10:48:33.229Z,3.20
2023-06-17T10:49:33.217Z,2.80
2023-06-17T10:50:33.200Z,3.00
2023-06-17T10:51:41.336Z,3.20
2023-06-17T10:52:34.181Z,3.40
2023-06-17T10:53:33.171Z,3.20
2023-06-17T10:54:33.152Z,3.20
2023-06-17T10:55:33.145Z,3.00
2023-06-17T10:56:33.131Z,3.20
2023-06-17T10:57:33.226Z,3.20
2023-06-17T10:58:33.111Z,3.00
2023-06-17T10:59:33.090Z,2.60
2023-06-17T11:00:33.113Z,3.20
2023-06-17T11:01:33.074Z,2.90
2023-06-17T11:02:33.241Z,2.80
2023-06-17T11:03:33.155Z,3.20
2023-06-17T11:04:33.162Z,2.70
2023-06-17T11:05:33.031Z,2.80
2023-06-17T11:06:32.992Z,3.10
2023-06-17T11:07:34.637Z,2.90
2023-06-17T11:08:32.980Z,2.50
2023-06-17T11:09:32.960Z,2.70
2023-06-17T11:10:33.008Z,3.00
2023-06-17T11:11:32.925Z,2.70
2023-06-17T11:12:32.916Z,2.80
2023-06-17T11:13:32.909Z,3.10
2023-06-17T11:14:32.900Z,3.20
2023-06-17T11:15:32.902Z,3.30
2023-06-17T11:16:32.901Z,3.10
2023-06-17T11:17:32.908Z,2.80
2023-06-17T11:18:32.845Z,2.70
2023-06-17T11:19:32.849Z,2.40
2023-06-17T11:20:32.809Z,2.90
2023-06-17T11:21:32.802Z,3.00
2023-06-17T11:22:32.787Z,2.80
2023-06-17T11:23:32.784Z,2.50
2023-06-17T11:24:32.933Z,2.60
2023-06-17T11:25:44.303Z,2.80
2023-06-17T11:26:33.733Z,2.50
2023-06-17T11:27:32.723Z,2.80
2023-06-17T11:28:32.717Z,2.80
2023-06-17T11:29:32.710Z,2.90
2023-06-17T11:30:32.715Z,3.10
2023-06-17T11:31:32.680Z,2.80
2023-06-17T11:32:32.705Z,2.90
2023-06-17T11:33:32.654Z,2.80
2023-06-17T11:34:32.830Z,2.70
2023-06-17T11:35:32.622Z,2.80
2023-06-17T11:36:32.607Z,3.10
2023-06-17T11:37:32.593Z,2.80
2023-06-17T11:38:32.587Z,3.00
2023-06-17T11:39:32.568Z,2.80
2023-06-17T11:40:32.549Z,3.00
2023-06-17T11:41:32.544Z,3.00
2023-06-17T11:42:32.540Z,3.40
2023-06-17T11:43:32.535Z,2.80
2023-06-17T11:44:32.523Z,2.70
2023-06-17T11:45:32.507Z,2.60
2023-06-17T11:46:32.529Z,3.10
2023-06-17T11:47:32.508Z,3.00
2023-06-17T11:48:32.455Z,2.80
2023-06-17T11:49:32.467Z,2.80
2023-06-17T11:50:32.426Z,2.60
2023-06-17T11:51:33.772Z,3.20
2023-06-17T11:52:32.413Z,3.10
2023-06-17T11:53:32.396Z,2.70
2023-06-17T11:54:32.375Z,2.70
2023-06-17T11:55:32.355Z,2.50
2023-06-17T11:56:32.343Z,2.60
2023-06-17T11:57:32.370Z,2.90
2023-06-17T11:58:32.357Z,3.20
2023-06-17T11:59:32.327Z,2.50
2023-06-17T12:00:32.285Z,3.30
2023-06-17T12:01:32.291Z,2.80
2023-06-17T12:02:32.380Z,2.80
2023-06-17T12:03:32.293Z,2.50
2023-06-17T12:04:32.373Z,2.70
2023-06-17T12:05:32.226Z,3.20
2023-06-17T12:06:32.226Z,2.80
2023-06-17T12:07:32.202Z,3.10
2023-06-17T12:08:32.201Z,2.80
2023-06-17T12:09:32.177Z,2.70
2023-06-17T12:10:32.180Z,3.10
2023-06-17T12:11:32.163Z,2.50
2023-06-17T12:12:32.157Z,2.50
2023-06-17T12:13:32.132Z,2.90
2023-06-17T12:14:32.115Z,2.60
2023-06-17T12:15:36.671Z,2.70
2023-06-17T12:16:33.099Z,2.90
2023-06-17T12:17:32.097Z,2.70
2023-06-17T12:18:32.060Z,2.60
2023-06-17T12:19:32.050Z,2.90
2023-06-17T12:20:32.048Z,2.60
2023-06-17T12:21:32.036Z,2.90
2023-06-17T12:22:32.027Z,3.20
2023-06-17T12:23:32.005Z,2.50
2023-06-17T12:24:32.032Z,2.90
2023-06-17T12:25:31.991Z,3.30
2023-06-17T12:26:31.964Z,3.10
2023-06-17T12:27:31.997Z,2.50
2023-06-17T12:28:31.936Z,2.50
2023-06-17T12:29:31.927Z,2.80
2023-06-17T12:30:31.922Z,2.80
2023-06-17T12:31:31.902Z,2.70
2023-06-17T12:32:31.949Z,2.60
2023-06-17T12:33:31.894Z,2.90
2023-06-17T12:34:31.886Z,2.80
2023-06-17T12:35:31.913Z,2.60
2023-06-17T12:36:31.839Z,2.70
2023-06-17T12:37:31.834Z,2.70
2023-06-17T12:38:31.811Z,3.70
2023-06-17T12:39:31.820Z,2.50
2023-06-17T12:40:31.836Z,2.60
2023-06-17T12:41:31.785Z,3.10
2023-06-17T12:42:31.793Z,2.80
2023-06-17T12:43:31.761Z,2.60
2023-06-17T12:44:31.778Z,2.70
2023-06-17T12:45:31.750Z,2.90
2023-06-17T12:46:31.835Z,2.70
2023-06-17T12:47:31.807Z,3.00
2023-06-17T12:48:31.685Z,2.90
2023-06-17T12:49:31.692Z,2.70
2023-06-17T12:50:31.771Z,3.00
2023-06-17T12:51:31.646Z,3.20
2023-06-17T12:52:31.636Z,2.70
2023-06-17T12:53:31.621Z,2.50
2023-06-17T12:54:31.626Z,2.70
2023-06-17T12:55:31.606Z,2.60
2023-06-17T12:56:31.578Z,2.70
2023-06-17T12:57:31.579Z,2.30
2023-06-17T12:58:31.560Z,2.60
2023-06-17T12:59:31.555Z,2.80
2023-06-17T13:00:31.542Z,2.80
2023-06-17T13:01:31.561Z,2.90
2023-06-17T13:02:31.524Z,2.50
2023-06-17T13:03:31.508Z,2.90
2023-06-17T13:04:31.557Z,2.80
2023-06-17T13:05:31.473Z,2.80
2023-06-17T13:06:31.453Z,3.00
2023-06-17T13:07:31.450Z,2.80
2023-06-17T13:08:31.449Z,2.80
2023-06-17T13:09:31.430Z,3.00
2023-06-17T13:10:31.406Z,2.40
2023-06-17T13:11:31.394Z,2.30
2023-06-17T13:12:31.391Z,2.90
2023-06-17T13:13:31.389Z,2.60
2023-06-17T13:14:31.354Z,3.00
2023-06-17T13:15:31.386Z,3.60
2023-06-17T13:16:31.368Z,3.00
2023-06-17T13:17:31.377Z,2.70
2023-06-17T13:18:31.311Z,2.80
2023-06-17T13:19:31.291Z,2.60
2023-06-17T13:20:31.283Z,2.40
2023-06-17T13:21:31.265Z,2.70
2023-06-17T13:22:31.267Z,2.70
2023-06-17T13:23:31.242Z,2.80
2023-06-17T13:24:31.336Z,2.80
2023-06-17T13:25:31.349Z,2.60
2023-06-17T13:26:31.212Z,2.70
2023-06-17T13:27:31.198Z,2.60
2023-06-17T13:28:31.169Z,2.80
2023-06-17T13:29:31.162Z,2.60
2023-06-17T13:30:31.152Z,2.90
2023-06-17T13:31:31.147Z,2.60
2023-06-17T13:32:31.137Z,2.70
2023-06-17T13:33:31.114Z,2.80
2023-06-17T13:34:31.089Z,2.50
2023-06-17T13:35:31.088Z,2.90
2023-06-17T13:36:31.076Z,3.00
2023-06-17T13:37:31.064Z,3.10
2023-06-17T13:38:31.039Z,2.60
2023-06-17T13:39:32.516Z,3.20
2023-06-17T13:40:31.015Z,2.30
2023-06-17T13:41:31.013Z,2.70
2023-06-17T13:42:31.008Z,2.60
2023-06-17T13:43:30.995Z,2.70
2023-06-17T13:44:30.975Z,3.00
2023-06-17T13:45:30.972Z,2.40
2023-06-17T13:46:31.047Z,3.00
2023-06-17T13:47:30.955Z,2.80
2023-06-17T13:48:30.929Z,3.10